Moby Aki — IBVV — position and weather

sailwx.info

Track history (hours):
 
Tides and Currents Weather Stations Pressure Air Temp Water Temp Dewpoint Dewpoint Depression Visibility Wind Speed Wind Dir Waves Ship Positions

Moby Aki

Last reported at 2016-Sep-24 22:34 UTC. Time now 2016-Sep-25 14:04 UTC.
Position N 43°10' E 010°05'.

Length 175 m; draft 6.9 m.

Type: Ship. MMSI: 247132400.

Date/timePositionNaut miles runAvg speedWind from/ knotsBaromVisibWave heightAir tempDewpointWater temp
2016-Sep-24 22:34N 43°10' E 010°05'2323.3
2016-Sep-24 21:33N 43°32' E 010°15'2 0.9
2016-Sep-24 19:33N 43°33' E 010°18'1716.8
2016-Sep-24 18:33N 43°17' E 010°09'17 0.7
2016-Sep-23 19:32N 43°33' E 010°18'0 0.0
2016-Sep-23 17:31N 43°33' E 010°18'0 0.0
2016-Sep-23 16:31N 43°33' E 010°18'0 0.0
2016-Sep-23 15:31N 43°33' E 010°18'0 0.0
2016-Sep-23 13:28N 43°33' E 010°18'0 0.0
2016-Sep-23 09:31N 43°33' E 010°18'0 0.0
2016-Sep-23 06:33N 43°33' E 010°18'0 0.0
2016-Sep-23 04:33N 43°33' E 010°18'1010.5
2016-Sep-23 03:33N 43°24' E 010°12'2121.4
2016-Sep-23 02:34N 43°03' E 010°04'32 1.0
2016-Sep-21 19:32N 43°33' E 010°18'0 0.0
2016-Sep-21 16:32N 43°33' E 010°18'0 0.0
2016-Sep-21 09:31N 43°33' E 010°18'0 0.0
2016-Sep-21 08:31N 43°33' E 010°18'0 0.0
2016-Sep-21 05:33N 43°33' E 010°18'11 5.5
2016-Sep-21 03:33N 43°24' E 010°10'2221.7
2016-Sep-21 02:33N 43°03' E 010°04'38 1.4
2016-Sep-19 23:33N 42°26' E 009°52'7017.5
2016-Sep-19 19:33N 43°33' E 010°18'0 0.0
2016-Sep-19 18:33N 43°33' E 010°18'0 0.0
2016-Sep-19 16:29N 43°33' E 010°18'0 0.0
2016-Sep-19 14:32N 43°33' E 010°18'0 0.0
2016-Sep-19 13:32N 43°33' E 010°18'0 0.0
2016-Sep-19 12:32N 43°33' E 010°18'0 0.0
2016-Sep-19 11:32N 43°33' E 010°18'0 0.0
2016-Sep-19 09:32N 43°33' E 010°18'0 0.0
2016-Sep-19 07:28N 43°33' E 010°18'0 0.0
2016-Sep-19 06:31N 43°33' E 010°18'9 3.2
2016-Sep-19 03:34N 43°25' E 010°10'2323.2
2016-Sep-19 02:33N 43°04' E 009°59'41 3.3
2016-Sep-18 14:07N 42°23' E 010°12'35 2.5
2016-Sep-18 00:11N 42°57' E 009°57'3923.6
2016-Sep-17 22:33N 43°32' E 010°17'1 1.0
2016-Sep-17 21:33N 43°33' E 010°18'2 2.1
2016-Sep-17 20:33N 43°32' E 010°16'3124.4
2016-Sep-17 19:16N 43°03' E 009°58'3 0.2
2016-Sep-17 07:34N 43°02' E 010°01'3416.6
2016-Sep-17 05:31N 43°33' E 010°18'0 0.0
2016-Sep-17 04:31N 43°33' E 010°18'35 1.7
2016-Sep-16 07:33N 42°60' E 010°05'28 7.1
2016-Sep-16 03:34N 43°27' E 010°13'2322.5
2016-Sep-16 02:33N 43°05' E 010°06'29 1.3
2016-Sep-15 04:33N 43°33' E 010°18'6 6.2
2016-Sep-15 03:33N 43°28' E 010°13'  
Track history (hours):
 
Tides and Currents Weather Stations Pressure Air Temp Water Temp Dewpoint Dewpoint Depression Visibility Wind Speed Wind Dir Waves Ship Positions

Moby Aki

Last reported at 2016-Sep-24 22:34 UTC. Time now 2016-Sep-25 14:04 UTC.
Position N 43°10' E 010°05'.

Length 175 m; draft 6.9 m.

Type: Ship. MMSI: 247132400.

Date/timePositionNaut miles runAvg speedWind from/ knotsBaromVisibWave heightAir tempDewpointWater temp
2016-Sep-24 22:34N 43°10' E 010°05'2323.3
2016-Sep-24 21:33N 43°32' E 010°15'2 0.9
2016-Sep-24 19:33N 43°33' E 010°18'1716.8
2016-Sep-24 18:33N 43°17' E 010°09'17 0.7
2016-Sep-23 19:32N 43°33' E 010°18'0 0.0
2016-Sep-23 17:31N 43°33' E 010°18'0 0.0
2016-Sep-23 16:31N 43°33' E 010°18'0 0.0
2016-Sep-23 15:31N 43°33' E 010°18'0 0.0
2016-Sep-23 13:28N 43°33' E 010°18'0 0.0
2016-Sep-23 09:31N 43°33' E 010°18'0 0.0
2016-Sep-23 06:33N 43°33' E 010°18'0 0.0
2016-Sep-23 04:33N 43°33' E 010°18'1010.5
2016-Sep-23 03:33N 43°24' E 010°12'2121.4
2016-Sep-23 02:34N 43°03' E 010°04'32 1.0
2016-Sep-21 19:32N 43°33' E 010°18'0 0.0
2016-Sep-21 16:32N 43°33' E 010°18'0 0.0
2016-Sep-21 09:31N 43°33' E 010°18'0 0.0
2016-Sep-21 08:31N 43°33' E 010°18'0 0.0
2016-Sep-21 05:33N 43°33' E 010°18'11 5.5
2016-Sep-21 03:33N 43°24' E 010°10'2221.7
2016-Sep-21 02:33N 43°03' E 010°04'38 1.4
2016-Sep-19 23:33N 42°26' E 009°52'7017.5
2016-Sep-19 19:33N 43°33' E 010°18'0 0.0
2016-Sep-19 18:33N 43°33' E 010°18'0 0.0
2016-Sep-19 16:29N 43°33' E 010°18'0 0.0
2016-Sep-19 14:32N 43°33' E 010°18'0 0.0
2016-Sep-19 13:32N 43°33' E 010°18'0 0.0
2016-Sep-19 12:32N 43°33' E 010°18'0 0.0
2016-Sep-19 11:32N 43°33' E 010°18'0 0.0
2016-Sep-19 09:32N 43°33' E 010°18'0 0.0
2016-Sep-19 07:28N 43°33' E 010°18'0 0.0
2016-Sep-19 06:31N 43°33' E 010°18'9 3.2
2016-Sep-19 03:34N 43°25' E 010°10'2323.2
2016-Sep-19 02:33N 43°04' E 009°59'41 3.3
2016-Sep-18 14:07N 42°23' E 010°12'35 2.5
2016-Sep-18 00:11N 42°57' E 009°57'3923.6
2016-Sep-17 22:33N 43°32' E 010°17'1 1.0
2016-Sep-17 21:33N 43°33' E 010°18'2 2.1
2016-Sep-17 20:33N 43°32' E 010°16'3124.4
2016-Sep-17 19:16N 43°03' E 009°58'3 0.2
2016-Sep-17 07:34N 43°02' E 010°01'3416.6
2016-Sep-17 05:31N 43°33' E 010°18'0 0.0
2016-Sep-17 04:31N 43°33' E 010°18'35 1.7
2016-Sep-16 07:33N 42°60' E 010°05'28 7.1
2016-Sep-16 03:34N 43°27' E 010°13'2322.5
2016-Sep-16 02:33N 43°05' E 010°06'29 1.3
2016-Sep-15 04:33N 43°33' E 010°18'6 6.2
2016-Sep-15 03:33N 43°28' E 010°13'  

Dump ship's entire track history